Aegean Princess — ZDID9 — position and weather

sailwx.info

Track history (hours):
 
Tides and Currents Weather Stations Pressure Air Temp Water Temp Dewpoint Dewpoint Depression Visibility Wind Speed Wind Dir Waves Ship Positions

Aegean Princess

Last reported at 2017-Jun-24 20:47 UTC. Time now 2017-Jun-25 03:44 UTC.
Position N 35°58' W 005°40'.

Length 100 m.

Type: Ship. MMSI: 236111476.

Date/timePositionNaut miles runAvg speedWind from/ knotsBaromVisibWave heightAir tempDewpointWater temp
2017-Jun-24 20:47N 35°58' W 005°40'2 7.6
2017-Jun-24 20:30N 35°58' W 005°37'4 7.6
2017-Jun-24 20:00N 35°59' W 005°33'3 6.7
2017-Jun-24 19:30N 35°60' W 005°29'3 5.1
2017-Jun-24 19:00N 36°01' W 005°26'3 5.7
2017-Jun-24 18:30N 36°02' W 005°23'4 8.7
2017-Jun-24 18:00N 36°07' W 005°23'2 4.2
2017-Jun-24 17:30N 36°09' W 005°22'0 0.8
2017-Jun-24 16:58N 36°08' W 005°22'0 0.0
2017-Jun-24 16:28N 36°08' W 005°22'0 0.0
2017-Jun-24 15:58N 36°08' W 005°22'0 0.0
2017-Jun-24 15:28N 36°08' W 005°22'0 0.0
2017-Jun-24 14:52N 36°08' W 005°22'0 0.0
2017-Jun-24 13:58N 36°08' W 005°22'0 0.0
2017-Jun-24 13:22N 36°08' W 005°22'0 0.0
2017-Jun-24 12:58N 36°08' W 005°22'0 0.0
2017-Jun-24 12:16N 36°08' W 005°22'0 0.0
2017-Jun-24 11:58N 36°08' W 005°22'0 0.0
2017-Jun-24 11:10N 36°08' W 005°22'0 0.0
2017-Jun-24 10:46N 36°08' W 005°22'0 0.0
2017-Jun-24 10:28N 36°08' W 005°22'0 0.0
2017-Jun-24 09:52N 36°08' W 005°22'0 0.0
2017-Jun-24 09:28N 36°08' W 005°22'0 0.0
2017-Jun-24 08:52N 36°08' W 005°22'0 0.0
2017-Jun-24 08:18N 36°08' W 005°22'0 0.0
2017-Jun-24 08:00N 36°08' W 005°22'0 0.0
2017-Jun-24 07:30N 36°08' W 005°22'0 0.0
2017-Jun-24 07:00N 36°08' W 005°22'0 0.0
2017-Jun-24 06:30N 36°08' W 005°22'0 0.0
2017-Jun-24 05:51N 36°08' W 005°22'0 0.0
2017-Jun-24 05:30N 36°08' W 005°22'0 0.0
2017-Jun-24 05:00N 36°08' W 005°22'0 0.0
2017-Jun-24 04:27N 36°08' W 005°22'0 0.0
2017-Jun-24 04:00N 36°08' W 005°22'0 0.0
2017-Jun-24 03:30N 36°08' W 005°22'0 0.0
2017-Jun-24 03:00N 36°08' W 005°22'0 0.0
2017-Jun-24 02:27N 36°08' W 005°22'0 0.0
2017-Jun-24 02:00N 36°08' W 005°22'0 0.0
2017-Jun-24 01:30N 36°08' W 005°22'0 0.0
2017-Jun-24 00:57N 36°08' W 005°22'0 0.0
2017-Jun-24 00:21N 36°08' W 005°22'0 0.0
2017-Jun-23 23:57N 36°08' W 005°22'0 0.0
2017-Jun-23 23:27N 36°08' W 005°22'0 0.0
2017-Jun-23 22:51N 36°08' W 005°22'0 0.0
2017-Jun-23 22:27N 36°08' W 005°22'0 0.0
2017-Jun-23 22:00N 36°08' W 005°22'0 0.0
2017-Jun-23 21:24N 36°08' W 005°22'0 0.0
2017-Jun-23 21:00N 36°08' W 005°22'0 0.0
2017-Jun-23 20:27N 36°08' W 005°22'0 0.0
2017-Jun-23 20:00N 36°08' W 005°22'0 0.0
2017-Jun-23 19:30N 36°08' W 005°22'0 0.0
2017-Jun-23 19:00N 36°08' W 005°22'0 0.0
2017-Jun-23 18:30N 36°08' W 005°22'0 0.0
2017-Jun-23 18:00N 36°08' W 005°22'0 0.0
2017-Jun-23 17:21N 36°08' W 005°22'0 0.0
2017-Jun-23 16:12N 36°08' W 005°22'0 0.0
2017-Jun-23 15:57N 36°08' W 005°22'0 0.0
2017-Jun-23 15:27N 36°08' W 005°22'0 0.0
2017-Jun-23 15:00N 36°08' W 005°22'0 0.0
2017-Jun-23 14:00N 36°08' W 005°22'0 0.0
2017-Jun-23 13:30N 36°08' W 005°22'0 0.0
2017-Jun-23 13:00N 36°08' W 005°22'0 0.0
2017-Jun-23 12:24N 36°08' W 005°22'0 0.0
2017-Jun-23 12:00N 36°08' W 005°22'0 0.0
2017-Jun-23 11:30N 36°08' W 005°22'0 0.0
2017-Jun-23 11:00N 36°08' W 005°22'0 0.0
2017-Jun-23 10:30N 36°08' W 005°22'0 0.0
2017-Jun-23 10:00N 36°08' W 005°22'0 0.0
2017-Jun-23 09:30N 36°08' W 005°22'0 0.0
2017-Jun-23 08:39N 36°08' W 005°22'0 0.0
2017-Jun-23 08:27N 36°08' W 005°22'0 0.0
2017-Jun-23 07:57N 36°08' W 005°22'0 0.0
2017-Jun-23 05:26N 36°08' W 005°22'0 0.0
2017-Jun-23 04:56N 36°08' W 005°22'0 0.0
2017-Jun-23 04:26N 36°08' W 005°22'0 0.0
2017-Jun-23 03:56N 36°08' W 005°22'0 0.0
2017-Jun-23 03:26N 36°08' W 005°22'0 0.0
2017-Jun-23 02:44N 36°08' W 005°22'0 0.0
2017-Jun-23 02:26N 36°08' W 005°22'0 0.0
2017-Jun-23 01:56N 36°08' W 005°22'0 0.0
2017-Jun-23 01:26N 36°08' W 005°22'0 0.0
2017-Jun-23 00:56N 36°08' W 005°22'0 0.0
2017-Jun-23 00:26N 36°08' W 005°22'0 0.0
2017-Jun-22 23:59N 36°08' W 005°22'0 0.0
2017-Jun-22 23:29N 36°08' W 005°22'0 0.0
2017-Jun-22 22:56N 36°08' W 005°22'0 0.0
2017-Jun-22 22:29N 36°08' W 005°22'0 0.0
2017-Jun-22 21:56N 36°08' W 005°22'0 0.0
2017-Jun-22 21:26N 36°08' W 005°22'0 0.0
2017-Jun-22 19:26N 36°08' W 005°22'0 0.0
2017-Jun-22 18:56N 36°08' W 005°22'0 0.0
2017-Jun-22 18:26N 36°08' W 005°22'0 0.0
2017-Jun-22 17:38N 36°08' W 005°22'0 0.0
2017-Jun-22 17:26N 36°08' W 005°22'0 0.0
2017-Jun-22 16:56N 36°08' W 005°22'0 0.0
2017-Jun-22 16:26N 36°08' W 005°22'0 0.0
2017-Jun-22 15:56N 36°08' W 005°22'0 0.0
2017-Jun-22 13:38N 36°08' W 005°22'0 0.0
2017-Jun-22 13:20N 36°08' W 005°22'0 0.0
2017-Jun-22 12:44N 36°08' W 005°22'0 0.0
2017-Jun-22 08:32N 36°08' W 005°22'0 0.0
2017-Jun-22 07:02N 36°08' W 005°22'0 0.0
2017-Jun-22 06:38N 36°08' W 005°22'0 0.0
2017-Jun-22 06:20N 36°08' W 005°22'0 0.0
2017-Jun-22 05:56N 36°08' W 005°22'0 0.0
2017-Jun-22 05:08N 36°08' W 005°22'0 0.0
2017-Jun-22 04:56N 36°08' W 005°22'0 0.0
2017-Jun-22 04:26N 36°08' W 005°22'0 0.0
2017-Jun-22 03:50N 36°08' W 005°22'0 0.0
2017-Jun-22 03:26N 36°08' W 005°22'0 0.0
2017-Jun-22 02:56N 36°08' W 005°22'0 0.0
2017-Jun-22 02:25N 36°08' W 005°22'0 0.0
2017-Jun-22 01:55N 36°08' W 005°22'0 0.0
2017-Jun-22 01:25N 36°08' W 005°22'0 0.0
2017-Jun-22 00:55N 36°08' W 005°22'0 0.0
2017-Jun-22 00:25N 36°08' W 005°22'0 0.0
2017-Jun-21 23:55N 36°08' W 005°22'0 0.0
2017-Jun-21 23:25N 36°08' W 005°22'0 0.0
2017-Jun-21 22:55N 36°08' W 005°22'0 0.0
2017-Jun-21 22:25N 36°08' W 005°22'0 0.0
2017-Jun-21 21:55N 36°08' W 005°22'0 0.0
2017-Jun-21 21:25N 36°08' W 005°22'0 0.0
2017-Jun-21 20:55N 36°08' W 005°22'0 0.0
2017-Jun-21 20:25N 36°08' W 005°22'0 0.0
2017-Jun-21 19:55N 36°08' W 005°22'0 0.0
2017-Jun-21 15:49N 36°08' W 005°22'0 0.0
2017-Jun-21 05:13N 36°08' W 005°22'0 0.0
2017-Jun-21 04:55N 36°08' W 005°22'0 0.0
2017-Jun-21 04:25N 36°08' W 005°22'0 0.0
2017-Jun-21 03:49N 36°08' W 005°22'0 0.0
2017-Jun-21 03:25N 36°08' W 005°22'0 0.0
2017-Jun-21 02:55N 36°08' W 005°22'0 0.0
2017-Jun-21 02:19N 36°08' W 005°22'0 0.0
2017-Jun-21 01:55N 36°08' W 005°22'0 0.0
2017-Jun-21 01:25N 36°08' W 005°22'0 0.0
2017-Jun-20 18:36N 36°08' W 005°22'0 0.0
2017-Jun-20 18:30N 36°08' W 005°22'0 0.0
2017-Jun-20 06:00N 36°08' W 005°22'0 0.0
2017-Jun-20 05:30N 36°08' W 005°22'0 0.0
2017-Jun-20 05:00N 36°08' W 005°22'0 0.0
2017-Jun-20 04:30N 36°08' W 005°22'0 0.0
2017-Jun-20 04:00N 36°08' W 005°22'0 0.0
2017-Jun-20 03:30N 36°08' W 005°22'0 0.0
2017-Jun-20 03:00N 36°08' W 005°22'0 0.0
2017-Jun-20 02:30N 36°08' W 005°22'0 0.0
2017-Jun-20 01:48N 36°08' W 005°22'0 0.0
2017-Jun-20 01:30N 36°08' W 005°22'0 0.0
2017-Jun-20 01:00N 36°08' W 005°22'0 0.0
2017-Jun-20 00:30N 36°08' W 005°22'0 0.0
2017-Jun-19 23:57N 36°08' W 005°22'0 0.0
2017-Jun-19 23:27N 36°08' W 005°22'0 0.0
2017-Jun-19 23:00N 36°08' W 005°22'0 0.0
2017-Jun-19 22:24N 36°08' W 005°22'0 0.0
2017-Jun-19 22:00N 36°08' W 005°22'0 0.0
2017-Jun-19 21:30N 36°08' W 005°22'0 0.0
2017-Jun-19 20:59N 36°08' W 005°22'0 0.0
2017-Jun-19 20:26N 36°08' W 005°22'0 0.0
2017-Jun-19 19:59N 36°08' W 005°22'0 0.0
2017-Jun-19 19:29N 36°08' W 005°22'0 0.0
2017-Jun-19 18:59N 36°08' W 005°22'0 0.0
2017-Jun-19 18:26N 36°08' W 005°22'0 0.0
2017-Jun-19 16:44N 36°08' W 005°22'0 0.0
2017-Jun-19 16:23N 36°08' W 005°22'0 0.0
2017-Jun-19 11:56N 36°08' W 005°22'0 0.0
2017-Jun-19 08:23N 36°08' W 005°22'0 0.0
2017-Jun-19 07:35N 36°08' W 005°22'0 0.0
2017-Jun-19 01:05N 36°08' W 005°22'0 0.0
2017-Jun-19 00:59N 36°08' W 005°22'0 0.0
2017-Jun-19 00:29N 36°08' W 005°22'0 0.0
2017-Jun-18 23:59N 36°08' W 005°22'0 0.0
2017-Jun-18 23:29N 36°08' W 005°22'0 0.0
2017-Jun-18 22:59N 36°08' W 005°22'0 0.0
2017-Jun-18 21:53N 36°08' W 005°22'0 0.0
2017-Jun-18 18:59N 36°08' W 005°22'0 0.0
2017-Jun-18 18:28N 36°08' W 005°22'0 0.0
2017-Jun-18 17:58N 36°08' W 005°22'0 0.0
2017-Jun-18 17:22N 36°08' W 005°22'0 0.0
2017-Jun-18 16:58N 36°08' W 005°22'0 0.0
2017-Jun-18 16:22N 36°08' W 005°22'0 0.0
2017-Jun-18 15:58N 36°08' W 005°22'0 0.0
2017-Jun-18 15:16N 36°08' W 005°22'0 0.0
2017-Jun-18 14:46N 36°08' W 005°22'0 0.0
2017-Jun-18 13:58N 36°08' W 005°22'0 0.0
2017-Jun-18 13:28N 36°08' W 005°22'0 0.0
2017-Jun-18 12:58N 36°08' W 005°22'0 0.0
2017-Jun-18 12:22N 36°08' W 005°22'0 0.0
2017-Jun-18 11:58N 36°08' W 005°22'0 0.0
2017-Jun-18 11:16N 36°08' W 005°22'0 0.0
2017-Jun-18 10:58N 36°08' W 005°22'0 0.0
2017-Jun-18 10:28N 36°08' W 005°22'0 0.0
2017-Jun-18 06:43N 36°08' W 005°22'0 0.0
2017-Jun-18 06:28N 36°08' W 005°22'0 0.0
2017-Jun-18 05:58N 36°08' W 005°22'0 0.0
2017-Jun-18 05:28N 36°08' W 005°22'0 0.0
2017-Jun-18 04:58N 36°08' W 005°22'0 0.0
2017-Jun-18 04:28N 36°08' W 005°22'0 0.0
2017-Jun-18 03:58N 36°08' W 005°22'0 0.0
2017-Jun-18 03:28N 36°08' W 005°22'0 0.0
2017-Jun-18 02:55N 36°08' W 005°22'0 0.0
2017-Jun-18 02:28N 36°08' W 005°22'0 0.0
2017-Jun-18 01:58N 36°08' W 005°22'0 0.0
2017-Jun-18 01:28N 36°08' W 005°22'0 0.0
2017-Jun-18 00:58N 36°08' W 005°22'0 0.0
2017-Jun-18 00:28N 36°08' W 005°22'0 0.0
2017-Jun-17 23:58N 36°08' W 005°22'0 0.0
2017-Jun-17 23:28N 36°08' W 005°22'0 0.0
2017-Jun-17 22:58N 36°08' W 005°22'0 0.0
2017-Jun-17 22:25N 36°08' W 005°22'0 0.0
2017-Jun-17 21:58N 36°08' W 005°22'0 0.0
2017-Jun-17 21:28N 36°08' W 005°22'0 0.0
2017-Jun-17 20:58N 36°08' W 005°22'0 0.0
2017-Jun-17 20:28N 36°08' W 005°22'0 0.0
2017-Jun-17 19:58N 36°08' W 005°22'0 0.0
2017-Jun-17 19:28N 36°08' W 005°22'0 0.0
2017-Jun-17 18:58N 36°08' W 005°22'0 0.0
2017-Jun-17 18:28N 36°08' W 005°22'0 0.0
2017-Jun-17 16:37N 36°08' W 005°22'0 0.0
2017-Jun-17 16:31N 36°08' W 005°22'0 0.0
2017-Jun-17 16:01N 36°08' W 005°22'0 0.0
2017-Jun-17 15:30N 36°08' W 005°22'0 0.0
2017-Jun-17 15:00N 36°08' W 005°22'0 0.0
2017-Jun-17 14:30N 36°08' W 005°22'0 0.0
2017-Jun-17 13:30N 36°08' W 005°22'0 0.0
2017-Jun-17 13:00N 36°08' W 005°22'0 0.0
2017-Jun-17 12:30N 36°08' W 005°22'0 0.0
2017-Jun-17 11:51N 36°08' W 005°22'0 0.0
2017-Jun-17 11:27N 36°08' W 005°22'0 0.0
2017-Jun-17 11:00N 36°08' W 005°22'0 0.0
2017-Jun-17 10:27N 36°08' W 005°22'0 0.0
2017-Jun-17 10:00N 36°08' W 005°22'0 0.0
2017-Jun-17 09:27N 36°08' W 005°22'0 0.0
2017-Jun-17 08:57N 36°08' W 005°22'0 0.0
2017-Jun-17 08:27N 36°08' W 005°22'0 0.0
2017-Jun-17 07:51N 36°08' W 005°22'0 0.0
2017-Jun-17 07:21N 36°08' W 005°22'0 0.0
2017-Jun-17 06:51N 36°08' W 005°22'0 0.0
2017-Jun-17 06:30N 36°08' W 005°22'0 0.0
2017-Jun-17 06:00N 36°08' W 005°22'0 0.0
2017-Jun-17 05:30N 36°08' W 005°22'0 0.0
2017-Jun-17 04:57N 36°08' W 005°22'0 0.0
2017-Jun-17 04:30N 36°08' W 005°22'0 0.0
2017-Jun-17 03:57N 36°08' W 005°22'0 0.0
2017-Jun-17 03:30N 36°08' W 005°22'0 0.0
2017-Jun-17 03:00N 36°08' W 005°22'0 0.0
2017-Jun-17 02:30N 36°08' W 005°22'0 0.0
2017-Jun-17 02:00N 36°08' W 005°22'0 0.0
2017-Jun-17 01:30N 36°08' W 005°22'0 0.0
2017-Jun-17 01:00N 36°08' W 005°22'0 0.0
2017-Jun-17 00:27N 36°08' W 005°22'0 0.0
2017-Jun-17 00:00N 36°08' W 005°22'0 0.0
2017-Jun-16 23:30N 36°08' W 005°22'0 0.0
2017-Jun-16 23:00N 36°08' W 005°22'0 0.0
2017-Jun-16 22:30N 36°08' W 005°22'0 0.0
2017-Jun-16 21:54N 36°08' W 005°22'0 0.0
2017-Jun-16 21:30N 36°08' W 005°22'0 0.0
2017-Jun-16 21:00N 36°08' W 005°22'0 0.0
2017-Jun-16 20:30N 36°08' W 005°22'0 0.0
2017-Jun-16 19:57N 36°08' W 005°22'0 0.0
2017-Jun-16 19:27N 36°08' W 005°22'0 0.0
2017-Jun-16 19:00N 36°08' W 005°22'0 0.0
2017-Jun-16 05:05N 36°08' W 005°22'0 0.0
2017-Jun-16 04:56N 36°08' W 005°22'0 0.0
2017-Jun-16 04:26N 36°08' W 005°22'0 0.0
2017-Jun-16 03:59N 36°08' W 005°22'0 0.0
2017-Jun-16 03:29N 36°08' W 005°22'0 0.0
2017-Jun-16 02:56N 36°08' W 005°22'0 0.0
2017-Jun-16 02:26N 36°08' W 005°22'0 0.0
2017-Jun-16 01:59N 36°08' W 005°22'0 0.0
2017-Jun-16 01:26N 36°08' W 005°22'0 0.0
2017-Jun-16 00:53N 36°08' W 005°22'0 0.0
2017-Jun-16 00:29N 36°08' W 005°22'0 0.0
2017-Jun-15 23:56N 36°08' W 005°22'0 0.0
2017-Jun-15 23:29N 36°08' W 005°22'0 0.0
2017-Jun-15 22:50N 36°08' W 005°22'0 0.0
2017-Jun-15 22:29N 36°08' W 005°22'0 0.0
2017-Jun-15 21:56N 36°08' W 005°22'0 0.0
2017-Jun-15 21:29N 36°08' W 005°22'0 0.0
2017-Jun-15 20:59N 36°08' W 005°22'0 0.0
2017-Jun-15 20:26N 36°08' W 005°22'0 0.0
2017-Jun-15 19:56N 36°08' W 005°22'0 0.0
2017-Jun-15 19:23N 36°08' W 005°22'0 0.0
2017-Jun-15 18:50N 36°08' W 005°22'0 0.0
2017-Jun-15 18:26N 36°08' W 005°22'0 0.0
2017-Jun-15 17:56N 36°08' W 005°22'0 0.0
2017-Jun-15 17:08N 36°08' W 005°22'0 0.0
2017-Jun-15 16:56N 36°08' W 005°22'0 0.0
2017-Jun-15 16:29N 36°08' W 005°22'0 0.0
2017-Jun-15 15:59N 36°08' W 005°22'0 0.0
2017-Jun-15 15:20N 36°08' W 005°22'0 0.0
2017-Jun-15 14:56N 36°08' W 005°22'0 0.0
2017-Jun-15 14:26N 36°08' W 005°22'0 0.0
2017-Jun-15 13:26N 36°08' W 005°22'0 0.0
2017-Jun-15 12:56N 36°08' W 005°22'0 0.0
2017-Jun-15 12:20N 36°08' W 005°22'0 0.0
2017-Jun-15 11:38N 36°08' W 005°22'0 0.0
2017-Jun-15 11:26N 36°08' W 005°22'0 0.0
2017-Jun-15 10:50N 36°08' W 005°22'0 0.0
2017-Jun-15 10:26N 36°08' W 005°22'0 0.0
2017-Jun-15 09:55N 36°08' W 005°22'0 0.0
2017-Jun-15 09:19N 36°08' W 005°22'0 0.0
2017-Jun-15 08:55N 36°08' W 005°22'0 0.0
2017-Jun-15 08:25N 36°08' W 005°22'0 0.0
2017-Jun-15 07:55N 36°08' W 005°22'0 0.0
2017-Jun-15 07:25N 36°08' W 005°22'0 0.0
2017-Jun-15 06:49N 36°08' W 005°22'0 0.0
2017-Jun-15 06:25N 36°08' W 005°22'0 0.0
2017-Jun-15 05:55N 36°08' W 005°22'0 0.0
2017-Jun-15 05:25N 36°08' W 005°22'0 0.0
2017-Jun-15 04:55N 36°08' W 005°22'0 0.0
2017-Jun-15 04:25N 36°08' W 005°22'0 0.0
2017-Jun-15 03:55N 36°08' W 005°22'0 0.0
2017-Jun-15 03:28N 36°08' W 005°22'0 0.0
2017-Jun-15 02:55N 36°08' W 005°22'0 0.0
2017-Jun-15 02:25N 36°08' W 005°22'0 0.0
2017-Jun-15 01:55N 36°08' W 005°22'0 0.0
2017-Jun-15 01:25N 36°08' W 005°22'0 0.0
2017-Jun-15 00:55N 36°08' W 005°22'0 0.0
2017-Jun-15 00:19N 36°08' W 005°22'0 0.0
2017-Jun-14 23:55N 36°08' W 005°22'0 0.0
2017-Jun-14 23:28N 36°08' W 005°22'0 0.0
2017-Jun-14 22:55N 36°08' W 005°22'0 0.0
2017-Jun-14 22:19N 36°08' W 005°22'0 0.0
2017-Jun-14 21:55N 36°08' W 005°22'0 0.0
2017-Jun-14 21:13N 36°08' W 005°22'0 0.0
2017-Jun-14 20:49N 36°08' W 005°22'  
Track history (hours):
 
Tides and Currents Weather Stations Pressure Air Temp Water Temp Dewpoint Dewpoint Depression Visibility Wind Speed Wind Dir Waves Ship Positions

Aegean Princess

Last reported at 2017-Jun-24 20:47 UTC. Time now 2017-Jun-25 03:44 UTC.
Position N 35°58' W 005°40'.

Length 100 m.

Type: Ship. MMSI: 236111476.

Date/timePositionNaut miles runAvg speedWind from/ knotsBaromVisibWave heightAir tempDewpointWater temp
2017-Jun-24 20:47N 35°58' W 005°40'2 7.6
2017-Jun-24 20:30N 35°58' W 005°37'4 7.6
2017-Jun-24 20:00N 35°59' W 005°33'3 6.7
2017-Jun-24 19:30N 35°60' W 005°29'3 5.1
2017-Jun-24 19:00N 36°01' W 005°26'3 5.7
2017-Jun-24 18:30N 36°02' W 005°23'4 8.7
2017-Jun-24 18:00N 36°07' W 005°23'2 4.2
2017-Jun-24 17:30N 36°09' W 005°22'0 0.8
2017-Jun-24 16:58N 36°08' W 005°22'0 0.0
2017-Jun-24 16:28N 36°08' W 005°22'0 0.0
2017-Jun-24 15:58N 36°08' W 005°22'0 0.0
2017-Jun-24 15:28N 36°08' W 005°22'0 0.0
2017-Jun-24 14:52N 36°08' W 005°22'0 0.0
2017-Jun-24 13:58N 36°08' W 005°22'0 0.0
2017-Jun-24 13:22N 36°08' W 005°22'0 0.0
2017-Jun-24 12:58N 36°08' W 005°22'0 0.0
2017-Jun-24 12:16N 36°08' W 005°22'0 0.0
2017-Jun-24 11:58N 36°08' W 005°22'0 0.0
2017-Jun-24 11:10N 36°08' W 005°22'0 0.0
2017-Jun-24 10:46N 36°08' W 005°22'0 0.0
2017-Jun-24 10:28N 36°08' W 005°22'0 0.0
2017-Jun-24 09:52N 36°08' W 005°22'0 0.0
2017-Jun-24 09:28N 36°08' W 005°22'0 0.0
2017-Jun-24 08:52N 36°08' W 005°22'0 0.0
2017-Jun-24 08:18N 36°08' W 005°22'0 0.0
2017-Jun-24 08:00N 36°08' W 005°22'0 0.0
2017-Jun-24 07:30N 36°08' W 005°22'0 0.0
2017-Jun-24 07:00N 36°08' W 005°22'0 0.0
2017-Jun-24 06:30N 36°08' W 005°22'0 0.0
2017-Jun-24 05:51N 36°08' W 005°22'0 0.0
2017-Jun-24 05:30N 36°08' W 005°22'0 0.0
2017-Jun-24 05:00N 36°08' W 005°22'0 0.0
2017-Jun-24 04:27N 36°08' W 005°22'0 0.0
2017-Jun-24 04:00N 36°08' W 005°22'0 0.0
2017-Jun-24 03:30N 36°08' W 005°22'0 0.0
2017-Jun-24 03:00N 36°08' W 005°22'0 0.0
2017-Jun-24 02:27N 36°08' W 005°22'0 0.0
2017-Jun-24 02:00N 36°08' W 005°22'0 0.0
2017-Jun-24 01:30N 36°08' W 005°22'0 0.0
2017-Jun-24 00:57N 36°08' W 005°22'0 0.0
2017-Jun-24 00:21N 36°08' W 005°22'0 0.0
2017-Jun-23 23:57N 36°08' W 005°22'0 0.0
2017-Jun-23 23:27N 36°08' W 005°22'0 0.0
2017-Jun-23 22:51N 36°08' W 005°22'0 0.0
2017-Jun-23 22:27N 36°08' W 005°22'0 0.0
2017-Jun-23 22:00N 36°08' W 005°22'0 0.0
2017-Jun-23 21:24N 36°08' W 005°22'0 0.0
2017-Jun-23 21:00N 36°08' W 005°22'0 0.0
2017-Jun-23 20:27N 36°08' W 005°22'0 0.0
2017-Jun-23 20:00N 36°08' W 005°22'0 0.0
2017-Jun-23 19:30N 36°08' W 005°22'0 0.0
2017-Jun-23 19:00N 36°08' W 005°22'0 0.0
2017-Jun-23 18:30N 36°08' W 005°22'0 0.0
2017-Jun-23 18:00N 36°08' W 005°22'0 0.0
2017-Jun-23 17:21N 36°08' W 005°22'0 0.0
2017-Jun-23 16:12N 36°08' W 005°22'0 0.0
2017-Jun-23 15:57N 36°08' W 005°22'0 0.0
2017-Jun-23 15:27N 36°08' W 005°22'0 0.0
2017-Jun-23 15:00N 36°08' W 005°22'0 0.0
2017-Jun-23 14:00N 36°08' W 005°22'0 0.0
2017-Jun-23 13:30N 36°08' W 005°22'0 0.0
2017-Jun-23 13:00N 36°08' W 005°22'0 0.0
2017-Jun-23 12:24N 36°08' W 005°22'0 0.0
2017-Jun-23 12:00N 36°08' W 005°22'0 0.0
2017-Jun-23 11:30N 36°08' W 005°22'0 0.0
2017-Jun-23 11:00N 36°08' W 005°22'0 0.0
2017-Jun-23 10:30N 36°08' W 005°22'0 0.0
2017-Jun-23 10:00N 36°08' W 005°22'0 0.0
2017-Jun-23 09:30N 36°08' W 005°22'0 0.0
2017-Jun-23 08:39N 36°08' W 005°22'0 0.0
2017-Jun-23 08:27N 36°08' W 005°22'0 0.0
2017-Jun-23 07:57N 36°08' W 005°22'0 0.0
2017-Jun-23 05:26N 36°08' W 005°22'0 0.0
2017-Jun-23 04:56N 36°08' W 005°22'0 0.0
2017-Jun-23 04:26N 36°08' W 005°22'0 0.0
2017-Jun-23 03:56N 36°08' W 005°22'0 0.0
2017-Jun-23 03:26N 36°08' W 005°22'0 0.0
2017-Jun-23 02:44N 36°08' W 005°22'0 0.0
2017-Jun-23 02:26N 36°08' W 005°22'0 0.0
2017-Jun-23 01:56N 36°08' W 005°22'0 0.0
2017-Jun-23 01:26N 36°08' W 005°22'0 0.0
2017-Jun-23 00:56N 36°08' W 005°22'0 0.0
2017-Jun-23 00:26N 36°08' W 005°22'0 0.0
2017-Jun-22 23:59N 36°08' W 005°22'0 0.0
2017-Jun-22 23:29N 36°08' W 005°22'0 0.0
2017-Jun-22 22:56N 36°08' W 005°22'0 0.0
2017-Jun-22 22:29N 36°08' W 005°22'0 0.0
2017-Jun-22 21:56N 36°08' W 005°22'0 0.0
2017-Jun-22 21:26N 36°08' W 005°22'0 0.0
2017-Jun-22 19:26N 36°08' W 005°22'0 0.0
2017-Jun-22 18:56N 36°08' W 005°22'0 0.0
2017-Jun-22 18:26N 36°08' W 005°22'0 0.0
2017-Jun-22 17:38N 36°08' W 005°22'0 0.0
2017-Jun-22 17:26N 36°08' W 005°22'0 0.0
2017-Jun-22 16:56N 36°08' W 005°22'0 0.0
2017-Jun-22 16:26N 36°08' W 005°22'0 0.0
2017-Jun-22 15:56N 36°08' W 005°22'0 0.0
2017-Jun-22 13:38N 36°08' W 005°22'0 0.0
2017-Jun-22 13:20N 36°08' W 005°22'0 0.0
2017-Jun-22 12:44N 36°08' W 005°22'0 0.0
2017-Jun-22 08:32N 36°08' W 005°22'0 0.0
2017-Jun-22 07:02N 36°08' W 005°22'0 0.0
2017-Jun-22 06:38N 36°08' W 005°22'0 0.0
2017-Jun-22 06:20N 36°08' W 005°22'0 0.0
2017-Jun-22 05:56N 36°08' W 005°22'0 0.0
2017-Jun-22 05:08N 36°08' W 005°22'0 0.0
2017-Jun-22 04:56N 36°08' W 005°22'0 0.0
2017-Jun-22 04:26N 36°08' W 005°22'0 0.0
2017-Jun-22 03:50N 36°08' W 005°22'0 0.0
2017-Jun-22 03:26N 36°08' W 005°22'0 0.0
2017-Jun-22 02:56N 36°08' W 005°22'0 0.0
2017-Jun-22 02:25N 36°08' W 005°22'0 0.0
2017-Jun-22 01:55N 36°08' W 005°22'0 0.0
2017-Jun-22 01:25N 36°08' W 005°22'0 0.0
2017-Jun-22 00:55N 36°08' W 005°22'0 0.0
2017-Jun-22 00:25N 36°08' W 005°22'0 0.0
2017-Jun-21 23:55N 36°08' W 005°22'0 0.0
2017-Jun-21 23:25N 36°08' W 005°22'0 0.0
2017-Jun-21 22:55N 36°08' W 005°22'0 0.0
2017-Jun-21 22:25N 36°08' W 005°22'0 0.0
2017-Jun-21 21:55N 36°08' W 005°22'0 0.0
2017-Jun-21 21:25N 36°08' W 005°22'0 0.0
2017-Jun-21 20:55N 36°08' W 005°22'0 0.0
2017-Jun-21 20:25N 36°08' W 005°22'0 0.0
2017-Jun-21 19:55N 36°08' W 005°22'0 0.0
2017-Jun-21 15:49N 36°08' W 005°22'0 0.0
2017-Jun-21 05:13N 36°08' W 005°22'0 0.0
2017-Jun-21 04:55N 36°08' W 005°22'0 0.0
2017-Jun-21 04:25N 36°08' W 005°22'0 0.0
2017-Jun-21 03:49N 36°08' W 005°22'0 0.0
2017-Jun-21 03:25N 36°08' W 005°22'0 0.0
2017-Jun-21 02:55N 36°08' W 005°22'0 0.0
2017-Jun-21 02:19N 36°08' W 005°22'0 0.0
2017-Jun-21 01:55N 36°08' W 005°22'0 0.0
2017-Jun-21 01:25N 36°08' W 005°22'0 0.0
2017-Jun-20 18:36N 36°08' W 005°22'0 0.0
2017-Jun-20 18:30N 36°08' W 005°22'0 0.0
2017-Jun-20 06:00N 36°08' W 005°22'0 0.0
2017-Jun-20 05:30N 36°08' W 005°22'0 0.0
2017-Jun-20 05:00N 36°08' W 005°22'0 0.0
2017-Jun-20 04:30N 36°08' W 005°22'0 0.0
2017-Jun-20 04:00N 36°08' W 005°22'0 0.0
2017-Jun-20 03:30N 36°08' W 005°22'0 0.0
2017-Jun-20 03:00N 36°08' W 005°22'0 0.0
2017-Jun-20 02:30N 36°08' W 005°22'0 0.0
2017-Jun-20 01:48N 36°08' W 005°22'0 0.0
2017-Jun-20 01:30N 36°08' W 005°22'0 0.0
2017-Jun-20 01:00N 36°08' W 005°22'0 0.0
2017-Jun-20 00:30N 36°08' W 005°22'0 0.0
2017-Jun-19 23:57N 36°08' W 005°22'0 0.0
2017-Jun-19 23:27N 36°08' W 005°22'0 0.0
2017-Jun-19 23:00N 36°08' W 005°22'0 0.0
2017-Jun-19 22:24N 36°08' W 005°22'0 0.0
2017-Jun-19 22:00N 36°08' W 005°22'0 0.0
2017-Jun-19 21:30N 36°08' W 005°22'0 0.0
2017-Jun-19 20:59N 36°08' W 005°22'0 0.0
2017-Jun-19 20:26N 36°08' W 005°22'0 0.0
2017-Jun-19 19:59N 36°08' W 005°22'0 0.0
2017-Jun-19 19:29N 36°08' W 005°22'0 0.0
2017-Jun-19 18:59N 36°08' W 005°22'0 0.0
2017-Jun-19 18:26N 36°08' W 005°22'0 0.0
2017-Jun-19 16:44N 36°08' W 005°22'0 0.0
2017-Jun-19 16:23N 36°08' W 005°22'0 0.0
2017-Jun-19 11:56N 36°08' W 005°22'0 0.0
2017-Jun-19 08:23N 36°08' W 005°22'0 0.0
2017-Jun-19 07:35N 36°08' W 005°22'0 0.0
2017-Jun-19 01:05N 36°08' W 005°22'0 0.0
2017-Jun-19 00:59N 36°08' W 005°22'0 0.0
2017-Jun-19 00:29N 36°08' W 005°22'0 0.0
2017-Jun-18 23:59N 36°08' W 005°22'0 0.0
2017-Jun-18 23:29N 36°08' W 005°22'0 0.0
2017-Jun-18 22:59N 36°08' W 005°22'0 0.0
2017-Jun-18 21:53N 36°08' W 005°22'0 0.0
2017-Jun-18 18:59N 36°08' W 005°22'0 0.0
2017-Jun-18 18:28N 36°08' W 005°22'0 0.0
2017-Jun-18 17:58N 36°08' W 005°22'0 0.0
2017-Jun-18 17:22N 36°08' W 005°22'0 0.0
2017-Jun-18 16:58N 36°08' W 005°22'0 0.0
2017-Jun-18 16:22N 36°08' W 005°22'0 0.0
2017-Jun-18 15:58N 36°08' W 005°22'0 0.0
2017-Jun-18 15:16N 36°08' W 005°22'0 0.0
2017-Jun-18 14:46N 36°08' W 005°22'0 0.0
2017-Jun-18 13:58N 36°08' W 005°22'0 0.0
2017-Jun-18 13:28N 36°08' W 005°22'0 0.0
2017-Jun-18 12:58N 36°08' W 005°22'0 0.0
2017-Jun-18 12:22N 36°08' W 005°22'0 0.0
2017-Jun-18 11:58N 36°08' W 005°22'0 0.0
2017-Jun-18 11:16N 36°08' W 005°22'0 0.0
2017-Jun-18 10:58N 36°08' W 005°22'0 0.0
2017-Jun-18 10:28N 36°08' W 005°22'0 0.0
2017-Jun-18 06:43N 36°08' W 005°22'0 0.0
2017-Jun-18 06:28N 36°08' W 005°22'0 0.0
2017-Jun-18 05:58N 36°08' W 005°22'0 0.0
2017-Jun-18 05:28N 36°08' W 005°22'0 0.0
2017-Jun-18 04:58N 36°08' W 005°22'0 0.0
2017-Jun-18 04:28N 36°08' W 005°22'0 0.0
2017-Jun-18 03:58N 36°08' W 005°22'0 0.0
2017-Jun-18 03:28N 36°08' W 005°22'0 0.0
2017-Jun-18 02:55N 36°08' W 005°22'0 0.0
2017-Jun-18 02:28N 36°08' W 005°22'0 0.0
2017-Jun-18 01:58N 36°08' W 005°22'0 0.0
2017-Jun-18 01:28N 36°08' W 005°22'0 0.0
2017-Jun-18 00:58N 36°08' W 005°22'0 0.0
2017-Jun-18 00:28N 36°08' W 005°22'0 0.0
2017-Jun-17 23:58N 36°08' W 005°22'0 0.0
2017-Jun-17 23:28N 36°08' W 005°22'0 0.0
2017-Jun-17 22:58N 36°08' W 005°22'0 0.0
2017-Jun-17 22:25N 36°08' W 005°22'0 0.0
2017-Jun-17 21:58N 36°08' W 005°22'0 0.0
2017-Jun-17 21:28N 36°08' W 005°22'0 0.0
2017-Jun-17 20:58N 36°08' W 005°22'0 0.0
2017-Jun-17 20:28N 36°08' W 005°22'0 0.0
2017-Jun-17 19:58N 36°08' W 005°22'0 0.0
2017-Jun-17 19:28N 36°08' W 005°22'0 0.0
2017-Jun-17 18:58N 36°08' W 005°22'0 0.0
2017-Jun-17 18:28N 36°08' W 005°22'0 0.0
2017-Jun-17 16:37N 36°08' W 005°22'0 0.0
2017-Jun-17 16:31N 36°08' W 005°22'0 0.0
2017-Jun-17 16:01N 36°08' W 005°22'0 0.0
2017-Jun-17 15:30N 36°08' W 005°22'0 0.0
2017-Jun-17 15:00N 36°08' W 005°22'0 0.0
2017-Jun-17 14:30N 36°08' W 005°22'0 0.0
2017-Jun-17 13:30N 36°08' W 005°22'0 0.0
2017-Jun-17 13:00N 36°08' W 005°22'0 0.0
2017-Jun-17 12:30N 36°08' W 005°22'0 0.0
2017-Jun-17 11:51N 36°08' W 005°22'0 0.0
2017-Jun-17 11:27N 36°08' W 005°22'0 0.0
2017-Jun-17 11:00N 36°08' W 005°22'0 0.0
2017-Jun-17 10:27N 36°08' W 005°22'0 0.0
2017-Jun-17 10:00N 36°08' W 005°22'0 0.0
2017-Jun-17 09:27N 36°08' W 005°22'0 0.0
2017-Jun-17 08:57N 36°08' W 005°22'0 0.0
2017-Jun-17 08:27N 36°08' W 005°22'0 0.0
2017-Jun-17 07:51N 36°08' W 005°22'0 0.0
2017-Jun-17 07:21N 36°08' W 005°22'0 0.0
2017-Jun-17 06:51N 36°08' W 005°22'0 0.0
2017-Jun-17 06:30N 36°08' W 005°22'0 0.0
2017-Jun-17 06:00N 36°08' W 005°22'0 0.0
2017-Jun-17 05:30N 36°08' W 005°22'0 0.0
2017-Jun-17 04:57N 36°08' W 005°22'0 0.0
2017-Jun-17 04:30N 36°08' W 005°22'0 0.0
2017-Jun-17 03:57N 36°08' W 005°22'0 0.0
2017-Jun-17 03:30N 36°08' W 005°22'0 0.0
2017-Jun-17 03:00N 36°08' W 005°22'0 0.0
2017-Jun-17 02:30N 36°08' W 005°22'0 0.0
2017-Jun-17 02:00N 36°08' W 005°22'0 0.0
2017-Jun-17 01:30N 36°08' W 005°22'0 0.0
2017-Jun-17 01:00N 36°08' W 005°22'0 0.0
2017-Jun-17 00:27N 36°08' W 005°22'0 0.0
2017-Jun-17 00:00N 36°08' W 005°22'0 0.0
2017-Jun-16 23:30N 36°08' W 005°22'0 0.0
2017-Jun-16 23:00N 36°08' W 005°22'0 0.0
2017-Jun-16 22:30N 36°08' W 005°22'0 0.0
2017-Jun-16 21:54N 36°08' W 005°22'0 0.0
2017-Jun-16 21:30N 36°08' W 005°22'0 0.0
2017-Jun-16 21:00N 36°08' W 005°22'0 0.0
2017-Jun-16 20:30N 36°08' W 005°22'0 0.0
2017-Jun-16 19:57N 36°08' W 005°22'0 0.0
2017-Jun-16 19:27N 36°08' W 005°22'0 0.0
2017-Jun-16 19:00N 36°08' W 005°22'0 0.0
2017-Jun-16 05:05N 36°08' W 005°22'0 0.0
2017-Jun-16 04:56N 36°08' W 005°22'0 0.0
2017-Jun-16 04:26N 36°08' W 005°22'0 0.0
2017-Jun-16 03:59N 36°08' W 005°22'0 0.0
2017-Jun-16 03:29N 36°08' W 005°22'0 0.0
2017-Jun-16 02:56N 36°08' W 005°22'0 0.0
2017-Jun-16 02:26N 36°08' W 005°22'0 0.0
2017-Jun-16 01:59N 36°08' W 005°22'0 0.0
2017-Jun-16 01:26N 36°08' W 005°22'0 0.0
2017-Jun-16 00:53N 36°08' W 005°22'0 0.0
2017-Jun-16 00:29N 36°08' W 005°22'0 0.0
2017-Jun-15 23:56N 36°08' W 005°22'0 0.0
2017-Jun-15 23:29N 36°08' W 005°22'0 0.0
2017-Jun-15 22:50N 36°08' W 005°22'0 0.0
2017-Jun-15 22:29N 36°08' W 005°22'0 0.0
2017-Jun-15 21:56N 36°08' W 005°22'0 0.0
2017-Jun-15 21:29N 36°08' W 005°22'0 0.0
2017-Jun-15 20:59N 36°08' W 005°22'0 0.0
2017-Jun-15 20:26N 36°08' W 005°22'0 0.0
2017-Jun-15 19:56N 36°08' W 005°22'0 0.0
2017-Jun-15 19:23N 36°08' W 005°22'0 0.0
2017-Jun-15 18:50N 36°08' W 005°22'0 0.0
2017-Jun-15 18:26N 36°08' W 005°22'0 0.0
2017-Jun-15 17:56N 36°08' W 005°22'0 0.0
2017-Jun-15 17:08N 36°08' W 005°22'0 0.0
2017-Jun-15 16:56N 36°08' W 005°22'0 0.0
2017-Jun-15 16:29N 36°08' W 005°22'0 0.0
2017-Jun-15 15:59N 36°08' W 005°22'0 0.0
2017-Jun-15 15:20N 36°08' W 005°22'0 0.0
2017-Jun-15 14:56N 36°08' W 005°22'0 0.0
2017-Jun-15 14:26N 36°08' W 005°22'0 0.0
2017-Jun-15 13:26N 36°08' W 005°22'0 0.0
2017-Jun-15 12:56N 36°08' W 005°22'0 0.0
2017-Jun-15 12:20N 36°08' W 005°22'0 0.0
2017-Jun-15 11:38N 36°08' W 005°22'0 0.0
2017-Jun-15 11:26N 36°08' W 005°22'0 0.0
2017-Jun-15 10:50N 36°08' W 005°22'0 0.0
2017-Jun-15 10:26N 36°08' W 005°22'0 0.0
2017-Jun-15 09:55N 36°08' W 005°22'0 0.0
2017-Jun-15 09:19N 36°08' W 005°22'0 0.0
2017-Jun-15 08:55N 36°08' W 005°22'0 0.0
2017-Jun-15 08:25N 36°08' W 005°22'0 0.0
2017-Jun-15 07:55N 36°08' W 005°22'0 0.0
2017-Jun-15 07:25N 36°08' W 005°22'0 0.0
2017-Jun-15 06:49N 36°08' W 005°22'0 0.0
2017-Jun-15 06:25N 36°08' W 005°22'0 0.0
2017-Jun-15 05:55N 36°08' W 005°22'0 0.0
2017-Jun-15 05:25N 36°08' W 005°22'0 0.0
2017-Jun-15 04:55N 36°08' W 005°22'0 0.0
2017-Jun-15 04:25N 36°08' W 005°22'0 0.0
2017-Jun-15 03:55N 36°08' W 005°22'0 0.0
2017-Jun-15 03:28N 36°08' W 005°22'0 0.0
2017-Jun-15 02:55N 36°08' W 005°22'0 0.0
2017-Jun-15 02:25N 36°08' W 005°22'0 0.0
2017-Jun-15 01:55N 36°08' W 005°22'0 0.0
2017-Jun-15 01:25N 36°08' W 005°22'0 0.0
2017-Jun-15 00:55N 36°08' W 005°22'0 0.0
2017-Jun-15 00:19N 36°08' W 005°22'0 0.0
2017-Jun-14 23:55N 36°08' W 005°22'0 0.0
2017-Jun-14 23:28N 36°08' W 005°22'0 0.0
2017-Jun-14 22:55N 36°08' W 005°22'0 0.0
2017-Jun-14 22:19N 36°08' W 005°22'0 0.0
2017-Jun-14 21:55N 36°08' W 005°22'0 0.0
2017-Jun-14 21:13N 36°08' W 005°22'0 0.0
2017-Jun-14 20:49N 36°08' W 005°22'  

Dump ship's entire track history